»·PEaware :: N459KM KOTH-6WA4

N459KM :: KOTH-6WA4

FLIGHT INFORMATION

Flight Status: Arrived
Operator: Privately registered:
United States
More flights under this callsign
Pilot: Jarrett L. (8209)
Aircraft: PIPER PA-28 CHEROKEE ARCHER
(PA28)
More flights by this aircraft type
Origin: KOTH North Bend Mun
United States
Destination: 6WA4 Taggares Fld
United States
More flights between these airports :: More routes between these airports
Route: +ZUBOR ADLOW OGYAJ SUNSN BENTY
File this flight plan on PilotEdge
Remarks: FSE
Altitude:
(Current/Filed)
9,500ft
Speed:
(Current/Filed)
140kts
Departed: 31-Oct-17 12:53 PM
Arrived: 31-Oct-17 03:50 PM
Distance/Time
Traveled:
299nm/2:57
Distance/Time
To Go:
Arrived

Flight Plot

Page will automatically refresh every two minutes.

Flight plan parsing failed; only flown route is shown


Map Options




Map Legend


Flown Route
Filed Route
Departure Airport
Arrival Airport
Navaid (VOR, NDB)
Fix

Horizontal Profiles

Position Reports

Time Latitude Longitude Heading Altitude Ground
Speed
31-Oct-17 12:51 43.415953 -124.245843 330 20ft 0kts
31-Oct-17 12:52 43.415953 -124.245843 330 20ft 0kts
31-Oct-17 12:53 43.415953 -124.245843 330 20ft 0kts
31-Oct-17 12:54 43.415567 -124.244254 151 20ft 16kts
31-Oct-17 12:55 43.411658 -124.241099 149 20ft 21kts
31-Oct-17 12:56 43.408958 -124.238732 76 20ft 0kts
31-Oct-17 12:57 43.410399 -124.238645 328 20ft 33kts
31-Oct-17 12:58 43.430087 -124.244043 27 1422ft 71kts
31-Oct-17 12:59 43.445403 -124.227272 33 2848ft 69kts
31-Oct-17 13:00 43.457786 -124.213994 26 3949ft 68kts
31-Oct-17 13:01 43.475275 -124.196686 27 5395ft 67kts
31-Oct-17 13:02 43.487666 -124.184616 27 6365ft 66kts
31-Oct-17 13:03 43.502463 -124.170554 28 7451ft 65kts
31-Oct-17 13:04 43.517401 -124.156726 28 8462ft 65kts
31-Oct-17 13:05 43.539311 -124.137412 29 8421ft 106kts
31-Oct-17 13:06 43.565283 -124.114246 29 8420ft 116kts
31-Oct-17 13:07 43.592493 -124.089064 29 8420ft 118kts
31-Oct-17 13:08 43.619945 -124.063508 30 8419ft 119kts
31-Oct-17 13:09 43.647112 -124.038028 30 8419ft 118kts
31-Oct-17 13:10 43.674391 -124.012402 26 8428ft 118kts
31-Oct-17 13:11 43.703405 -123.991334 24 8428ft 118kts
31-Oct-17 13:12 43.732484 -123.970227 24 8428ft 118kts
31-Oct-17 13:13 43.761443 -123.948792 24 8427ft 118kts
31-Oct-17 13:14 43.790121 -123.926101 24 8427ft 119kts
31-Oct-17 13:15 43.818739 -123.903275 25 8427ft 119kts
31-Oct-17 13:16 43.847290 -123.880327 25 8427ft 119kts
31-Oct-17 13:17 43.874874 -123.857990 25 8427ft 119kts
31-Oct-17 13:18 43.902978 -123.835063 25 8427ft 119kts
31-Oct-17 13:19 43.932060 -123.813076 22 8426ft 118kts
31-Oct-17 13:20 43.961286 -123.792202 22 8426ft 118kts
31-Oct-17 13:21 43.990515 -123.771155 22 8426ft 118kts
31-Oct-17 13:22 44.019594 -123.750044 22 8426ft 118kts
31-Oct-17 13:23 44.048997 -123.728412 23 8426ft 120kts
31-Oct-17 13:24 44.078393 -123.706603 23 8426ft 120kts
31-Oct-17 13:25 44.107839 -123.684587 23 8431ft 120kts
31-Oct-17 13:26 44.137358 -123.662374 23 8432ft 121kts
31-Oct-17 13:27 44.166892 -123.640029 23 8449ft 120kts
31-Oct-17 13:28 44.194809 -123.618895 23 8449ft 120kts
31-Oct-17 13:29 44.224023 -123.596657 23 8449ft 120kts
31-Oct-17 13:30 44.253383 -123.574126 23 8453ft 120kts
31-Oct-17 13:31 44.282257 -123.550544 24 8458ft 122kts
31-Oct-17 13:32 44.311284 -123.526601 24 8458ft 122kts
31-Oct-17 13:33 44.340336 -123.502615 24 8458ft 121kts
31-Oct-17 13:34 44.369387 -123.478607 24 8458ft 121kts
31-Oct-17 13:35 44.398035 -123.454911 24 8458ft 121kts
31-Oct-17 13:36 44.426883 -123.430947 24 8457ft 121kts
31-Oct-17 13:37 44.455793 -123.406752 24 8457ft 121kts
31-Oct-17 13:38 44.484548 -123.382508 25 8457ft 121kts
31-Oct-17 13:39 44.513368 -123.358366 23 8457ft 120kts
31-Oct-17 13:40 44.542392 -123.335685 24 8456ft 120kts
31-Oct-17 13:41 44.571348 -123.312853 24 8456ft 120kts
31-Oct-17 13:42 44.600552 -123.289865 21 8456ft 120kts
31-Oct-17 13:43 44.630703 -123.270077 20 8456ft 120kts
31-Oct-17 13:44 44.660691 -123.250297 20 8456ft 119kts
31-Oct-17 13:45 44.690758 -123.229887 20 8455ft 120kts
31-Oct-17 13:46 44.720811 -123.209224 20 8455ft 120kts
31-Oct-17 13:47 44.750605 -123.188570 20 8455ft 121kts
31-Oct-17 13:48 44.777222 -123.157918 35 8445ft 127kts
31-Oct-17 13:49 44.801577 -123.121477 37 8445ft 128kts
31-Oct-17 13:50 44.804021 -123.117828 37 8445ft 128kts
31-Oct-17 13:51 44.804021 -123.117828 37 8445ft 128kts
31-Oct-17 13:52 44.804021 -123.117828 37 8445ft 128kts
31-Oct-17 13:53 44.804021 -123.117828 37 8445ft 128kts
31-Oct-17 13:54 44.804021 -123.117828 37 8445ft 128kts
31-Oct-17 13:55 44.804021 -123.117828 37 8445ft 128kts
31-Oct-17 13:56 44.804021 -123.117828 37 8445ft 128kts
31-Oct-17 13:57 44.804021 -123.117828 37 8445ft 128kts
31-Oct-17 13:58 44.804021 -123.117828 37 8445ft 128kts
31-Oct-17 13:59 44.804021 -123.117828 37 8445ft 128kts
31-Oct-17 14:00 44.804021 -123.117828 37 8445ft 128kts
31-Oct-17 14:01 44.804021 -123.117828 37 8445ft 128kts
31-Oct-17 14:02 44.804021 -123.117828 37 8445ft 128kts
31-Oct-17 14:03 44.804021 -123.117828 37 8445ft 128kts
31-Oct-17 14:04 44.804021 -123.117828 37 8445ft 128kts
31-Oct-17 14:05 44.804021 -123.117828 37 8445ft 128kts
31-Oct-17 14:06 44.804021 -123.117828 37 8445ft 128kts
31-Oct-17 14:07 44.804021 -123.117828 37 8445ft 128kts
31-Oct-17 14:08 44.804021 -123.117828 37 8445ft 128kts
31-Oct-17 14:09 44.804021 -123.117828 37 8445ft 128kts
31-Oct-17 14:10 44.804021 -123.117828 37 8445ft 128kts
31-Oct-17 14:11 44.804021 -123.117828 37 8445ft 128kts
31-Oct-17 14:12 44.804021 -123.117828 37 8445ft 128kts
31-Oct-17 14:13 44.804021 -123.117828 37 8445ft 128kts
31-Oct-17 14:14 44.804021 -123.117828 37 8445ft 128kts
31-Oct-17 14:15 44.804021 -123.117828 37 8445ft 128kts
31-Oct-17 14:16 44.804021 -123.117828 37 8445ft 128kts
31-Oct-17 14:17 44.804021 -123.117828 37 8445ft 128kts
31-Oct-17 14:18 44.804021 -123.117828 37 8445ft 128kts
31-Oct-17 14:19 44.804435 -123.117211 38 8445ft 128kts
31-Oct-17 14:20 44.829995 -123.080587 37 8409ft 132kts
31-Oct-17 14:21 44.855580 -123.043870 37 8409ft 131kts
31-Oct-17 14:22 44.881061 -123.007036 37 8409ft 132kts
31-Oct-17 14:23 44.906368 -122.970265 37 8409ft 132kts
31-Oct-17 14:24 44.931657 -122.933292 37 8409ft 131kts
31-Oct-17 14:25 44.956961 -122.896086 38 8409ft 132kts
31-Oct-17 14:26 44.981327 -122.860045 38 8409ft 132kts
31-Oct-17 14:27 45.006459 -122.822646 38 8409ft 132kts
31-Oct-17 14:28 45.031527 -122.785146 38 8408ft 132kts
31-Oct-17 14:29 45.056443 -122.747670 38 8429ft 130kts
31-Oct-17 14:30 45.081136 -122.709607 38 8436ft 132kts
31-Oct-17 14:31 45.105388 -122.672098 38 8440ft 132kts
31-Oct-17 14:32 45.129157 -122.633633 40 8441ft 133kts
31-Oct-17 14:33 45.152940 -122.593795 40 8441ft 133kts
31-Oct-17 14:34 45.176682 -122.553842 41 8441ft 133kts
31-Oct-17 14:35 45.200304 -122.513855 41 8441ft 133kts
31-Oct-17 14:36 45.223479 -122.473293 42 8441ft 133kts
31-Oct-17 14:37 45.246586 -122.432196 42 8441ft 133kts
31-Oct-17 14:38 45.269430 -122.389518 42 8423ft 138kts
31-Oct-17 14:39 45.292623 -122.345944 41 8421ft 138kts
31-Oct-17 14:40 45.316133 -122.303811 41 8420ft 138kts
31-Oct-17 14:41 45.340058 -122.260705 41 8420ft 139kts
31-Oct-17 14:42 45.363628 -122.217627 41 8420ft 140kts
31-Oct-17 14:43 45.387378 -122.173789 41 8420ft 140kts
31-Oct-17 14:44 45.411087 -122.130100 41 8420ft 140kts
31-Oct-17 14:45 45.435065 -122.086920 41 8420ft 140kts
31-Oct-17 14:46 45.459138 -122.043584 40 8420ft 139kts
31-Oct-17 14:47 45.483460 -122.000845 40 8420ft 140kts
31-Oct-17 14:48 45.507765 -121.957907 40 8420ft 140kts
31-Oct-17 14:49 45.532373 -121.914403 40 8338ft 141kts
31-Oct-17 14:50 45.556761 -121.871139 40 8319ft 139kts
31-Oct-17 14:51 45.579774 -121.826645 50 8319ft 143kts
31-Oct-17 14:52 45.597632 -121.776048 52 8320ft 143kts
31-Oct-17 14:53 45.615165 -121.725589 53 8320ft 143kts
31-Oct-17 14:54 45.632753 -121.674708 53 8320ft 146kts
31-Oct-17 14:55 45.651253 -121.622155 53 8320ft 149kts
31-Oct-17 14:56 45.669519 -121.569106 55 8320ft 150kts
31-Oct-17 14:57 45.675967 -121.508763 71 8319ft 157kts
31-Oct-17 14:58 45.689520 -121.451125 60 8321ft 153kts
31-Oct-17 14:59 45.703844 -121.394058 60 8321ft 153kts
31-Oct-17 15:00 45.715243 -121.348338 61 8320ft 153kts
31-Oct-17 15:01 45.720853 -121.325289 61 8335ft 150kts
31-Oct-17 15:02 45.733911 -121.269668 61 8336ft 148kts
31-Oct-17 15:03 45.747066 -121.214297 61 8336ft 149kts
31-Oct-17 15:04 45.760815 -121.158085 61 8336ft 151kts
31-Oct-17 15:05 45.774886 -121.101103 61 8300ft 152kts
31-Oct-17 15:06 45.788859 -121.044153 62 8300ft 152kts
31-Oct-17 15:07 45.802782 -120.986977 62 8300ft 152kts
31-Oct-17 15:08 45.814320 -120.939259 62 8300ft 152kts
31-Oct-17 15:09 45.828053 -120.882061 62 8300ft 152kts
31-Oct-17 15:10 45.843950 -120.815289 62 8300ft 152kts
31-Oct-17 15:11 45.855278 -120.767330 62 8300ft 152kts
31-Oct-17 15:12 45.868872 -120.710069 62 8301ft 152kts
31-Oct-17 15:13 45.882298 -120.653544 62 8301ft 152kts
31-Oct-17 15:14 45.895846 -120.596063 62 8301ft 152kts
31-Oct-17 15:15 45.909329 -120.538398 62 8301ft 152kts
31-Oct-17 15:16 45.922674 -120.480874 63 8301ft 152kts
31-Oct-17 15:17 45.935590 -120.424851 63 8259ft 154kts
31-Oct-17 15:18 45.948872 -120.366843 63 8256ft 152kts
31-Oct-17 15:19 45.961602 -120.310768 64 8252ft 152kts
31-Oct-17 15:20 45.974579 -120.253160 64 8253ft 152kts
31-Oct-17 15:21 45.987241 -120.194611 64 8253ft 154kts
31-Oct-17 15:22 45.999836 -120.135537 64 8253ft 154kts
31-Oct-17 15:23 46.012343 -120.076399 64 8253ft 154kts
31-Oct-17 15:24 46.024711 -120.017431 64 8253ft 154kts
31-Oct-17 15:25 46.040831 -119.961197 54 8244ft 151kts
31-Oct-17 15:26 46.061830 -119.910333 42 8244ft 146kts
31-Oct-17 15:27 46.084180 -119.860707 48 8244ft 149kts
31-Oct-17 15:28 46.105532 -119.810231 48 8248ft 150kts
31-Oct-17 15:29 46.126850 -119.759714 48 8249ft 151kts
31-Oct-17 15:30 46.148781 -119.708911 47 8249ft 151kts
31-Oct-17 15:31 46.171538 -119.658064 47 8249ft 151kts
31-Oct-17 15:32 46.194442 -119.606951 47 8221ft 152kts
31-Oct-17 15:33 46.217393 -119.555743 47 8222ft 153kts
31-Oct-17 15:34 46.240395 -119.504192 47 8222ft 153kts
31-Oct-17 15:35 46.263111 -119.452174 47 8222ft 154kts
31-Oct-17 15:36 46.290336 -119.408646 12 8222ft 137kts
31-Oct-17 15:37 46.325364 -119.392114 4 8222ft 133kts
31-Oct-17 15:38 46.360597 -119.376679 4 8222ft 134kts
31-Oct-17 15:39 46.396091 -119.360965 4 8222ft 134kts
31-Oct-17 15:40 46.430045 -119.345769 5 8218ft 134kts
31-Oct-17 15:41 46.464809 -119.329976 5 8217ft 133kts
31-Oct-17 15:42 46.499966 -119.313828 6 8217ft 133kts
31-Oct-17 15:43 46.535080 -119.297533 6 8217ft 133kts
31-Oct-17 15:44 46.568991 -119.281194 6 7670ft 127kts
31-Oct-17 15:45 46.602466 -119.265033 6 6820ft 128kts
31-Oct-17 15:46 46.636059 -119.249049 6 5977ft 123kts
31-Oct-17 15:47 46.669572 -119.234100 6 4880ft 126kts
31-Oct-17 15:48 46.703016 -119.220107 6 3883ft 126kts
31-Oct-17 15:49 46.733933 -119.208144 6 2818ft 115kts
31-Oct-17 15:50 46.767643 -119.196489 7 2781ft 128kts
31-Oct-17 15:51 46.801391 -119.176188 21 2691ft 134kts
31-Oct-17 15:52 46.833359 -119.153323 32 2073ft 127kts
31-Oct-17 15:53 46.859304 -119.134873 8 1562ft 90kts
31-Oct-17 15:54 46.880724 -119.140048 239 1493ft 85kts
31-Oct-17 15:55 46.863600 -119.141565 138 1150ft 36kts
31-Oct-17 15:56 46.856875 -119.141974 182 1150ft 13kts
31-Oct-17 15:57 46.856836 -119.141719 163 1150ft 0kts

Navigation Log

Ident Type
Flight plan parsing failed, navigation log unavailable